sensor_id;sensor_type;location;lat;lon;timestamp;P1;durP1;ratioP1;P2;durP2;ratioP2
11086;SDS011;5597;47.588;9.642;2022-08-26T00:00:47;5.83;;;5.43;;
11086;SDS011;5597;47.588;9.642;2022-08-26T00:03:13;5.63;;;5.23;;
11086;SDS011;5597;47.588;9.642;2022-08-26T00:05:40;6.07;;;5.60;;
11086;SDS011;5597;47.588;9.642;2022-08-26T00:08:07;5.63;;;5.07;;
11086;SDS011;5597;47.588;9.642;2022-08-26T00:10:34;5.80;;;5.30;;
11086;SDS011;5597;47.588;9.642;2022-08-26T00:13:00;5.20;;;4.80;;
11086;SDS011;5597;47.588;9.642;2022-08-26T00:15:26;5.80;;;5.40;;
11086;SDS011;5597;47.588;9.642;2022-08-26T00:17:52;5.50;;;5.10;;
11086;SDS011;5597;47.588;9.642;2022-08-26T00:20:19;5.40;;;5.00;;
11086;SDS011;5597;47.588;9.642;2022-08-26T00:22:48;5.70;;;5.30;;
11086;SDS011;5597;47.588;9.642;2022-08-26T00:25:13;5.73;;;5.23;;
11086;SDS011;5597;47.588;9.642;2022-08-26T00:27:40;5.93;;;5.33;;
11086;SDS011;5597;47.588;9.642;2022-08-26T00:30:09;5.50;;;5.10;;
11086;SDS011;5597;47.588;9.642;2022-08-26T00:32:40;6.17;;;5.67;;
11086;SDS011;5597;47.588;9.642;2022-08-26T00:35:06;6.50;;;5.50;;
11086;SDS011;5597;47.588;9.642;2022-08-26T00:37:32;5.70;;;5.20;;
11086;SDS011;5597;47.588;9.642;2022-08-26T00:39:58;5.13;;;4.67;;
11086;SDS011;5597;47.588;9.642;2022-08-26T00:42:24;5.00;;;4.57;;
11086;SDS011;5597;47.588;9.642;2022-08-26T00:44:50;5.30;;;4.90;;
11086;SDS011;5597;47.588;9.642;2022-08-26T00:47:23;5.10;;;4.70;;
11086;SDS011;5597;47.588;9.642;2022-08-26T00:49:55;5.50;;;5.10;;
11086;SDS011;5597;47.588;9.642;2022-08-26T00:52:23;6.00;;;5.50;;
11086;SDS011;5597;47.588;9.642;2022-08-26T00:54:52;5.70;;;5.20;;
11086;SDS011;5597;47.588;9.642;2022-08-26T00:57:26;5.60;;;5.20;;
11086;SDS011;5597;47.588;9.642;2022-08-26T00:59:54;5.60;;;5.20;;
11086;SDS011;5597;47.588;9.642;2022-08-26T01:02:22;6.03;;;5.53;;
11086;SDS011;5597;47.588;9.642;2022-08-26T01:04:49;5.60;;;5.20;;
11086;SDS011;5597;47.588;9.642;2022-08-26T01:07:17;5.63;;;5.20;;
11086;SDS011;5597;47.588;9.642;2022-08-26T01:09:44;5.53;;;5.03;;
11086;SDS011;5597;47.588;9.642;2022-08-26T01:12:10;5.40;;;5.00;;
11086;SDS011;5597;47.588;9.642;2022-08-26T01:14:36;5.47;;;5.07;;
11086;SDS011;5597;47.588;9.642;2022-08-26T01:17:04;5.57;;;5.10;;
11086;SDS011;5597;47.588;9.642;2022-08-26T01:19:32;5.10;;;4.70;;
11086;SDS011;5597;47.588;9.642;2022-08-26T01:22:05;5.10;;;4.70;;
11086;SDS011;5597;47.588;9.642;2022-08-26T01:24:34;5.33;;;4.83;;
11086;SDS011;5597;47.588;9.642;2022-08-26T01:27:03;5.20;;;4.80;;
11086;SDS011;5597;47.588;9.642;2022-08-26T01:29:31;5.90;;;5.27;;
11086;SDS011;5597;47.588;9.642;2022-08-26T01:31:59;5.77;;;5.27;;
11086;SDS011;5597;47.588;9.642;2022-08-26T01:34:25;5.43;;;5.03;;
11086;SDS011;5597;47.588;9.642;2022-08-26T01:37:00;5.53;;;5.03;;
11086;SDS011;5597;47.588;9.642;2022-08-26T01:39:35;5.50;;;5.10;;
11086;SDS011;5597;47.588;9.642;2022-08-26T01:42:02;5.37;;;4.97;;
11086;SDS011;5597;47.588;9.642;2022-08-26T01:44:33;5.20;;;4.80;;
11086;SDS011;5597;47.588;9.642;2022-08-26T01:47:04;6.10;;;5.43;;
11086;SDS011;5597;47.588;9.642;2022-08-26T01:49:30;5.83;;;5.33;;
11086;SDS011;5597;47.588;9.642;2022-08-26T01:51:58;6.10;;;5.60;;
11086;SDS011;5597;47.588;9.642;2022-08-26T01:54:24;6.00;;;5.50;;
11086;SDS011;5597;47.588;9.642;2022-08-26T01:56:51;5.27;;;4.87;;
11086;SDS011;5597;47.588;9.642;2022-08-26T01:59:17;5.30;;;4.90;;
11086;SDS011;5597;47.588;9.642;2022-08-26T02:01:45;5.37;;;4.93;;
11086;SDS011;5597;47.588;9.642;2022-08-26T02:06:41;6.03;;;5.53;;
11086;SDS011;5597;47.588;9.642;2022-08-26T02:09:09;4.97;;;4.63;;
11086;SDS011;5597;47.588;9.642;2022-08-26T02:11:36;5.20;;;4.70;;
11086;SDS011;5597;47.588;9.642;2022-08-26T02:14:03;5.77;;;4.93;;
11086;SDS011;5597;47.588;9.642;2022-08-26T02:16:35;5.77;;;5.27;;
11086;SDS011;5597;47.588;9.642;2022-08-26T02:19:03;5.80;;;5.27;;
11086;SDS011;5597;47.588;9.642;2022-08-26T02:21:33;5.70;;;5.20;;
11086;SDS011;5597;47.588;9.642;2022-08-26T02:24:44;5.53;;;5.13;;
11086;SDS011;5597;47.588;9.642;2022-08-26T02:26:54;6.00;;;5.50;;
11086;SDS011;5597;47.588;9.642;2022-08-26T02:29:23;5.57;;;5.17;;
11086;SDS011;5597;47.588;9.642;2022-08-26T02:31:49;5.90;;;5.40;;
11086;SDS011;5597;47.588;9.642;2022-08-26T02:34:19;5.93;;;5.43;;
11086;SDS011;5597;47.588;9.642;2022-08-26T02:36:48;6.17;;;5.67;;
11086;SDS011;5597;47.588;9.642;2022-08-26T02:39:14;6.13;;;5.63;;
11086;SDS011;5597;47.588;9.642;2022-08-26T02:41:40;5.70;;;5.20;;
11086;SDS011;5597;47.588;9.642;2022-08-26T02:44:07;5.80;;;5.40;;
11086;SDS011;5597;47.588;9.642;2022-08-26T02:46:33;5.60;;;5.10;;
11086;SDS011;5597;47.588;9.642;2022-08-26T02:48:59;5.57;;;5.17;;
11086;SDS011;5597;47.588;9.642;2022-08-26T02:51:25;5.60;;;5.20;;
11086;SDS011;5597;47.588;9.642;2022-08-26T02:53:51;5.47;;;5.07;;
11086;SDS011;5597;47.588;9.642;2022-08-26T02:56:17;5.50;;;5.10;;
11086;SDS011;5597;47.588;9.642;2022-08-26T02:58:43;5.20;;;4.80;;
11086;SDS011;5597;47.588;9.642;2022-08-26T03:01:18;5.47;;;5.07;;
11086;SDS011;5597;47.588;9.642;2022-08-26T03:03:54;5.57;;;5.07;;
11086;SDS011;5597;47.588;9.642;2022-08-26T03:06:21;5.80;;;5.33;;
11086;SDS011;5597;47.588;9.642;2022-08-26T03:08:48;4.70;;;4.37;;
11086;SDS011;5597;47.588;9.642;2022-08-26T03:11:15;5.50;;;5.00;;
11086;SDS011;5597;47.588;9.642;2022-08-26T03:13:40;5.70;;;5.30;;
11086;SDS011;5597;47.588;9.642;2022-08-26T03:16:06;5.37;;;4.87;;
11086;SDS011;5597;47.588;9.642;2022-08-26T03:18:32;5.33;;;4.93;;
11086;SDS011;5597;47.588;9.642;2022-08-26T03:21:03;5.57;;;5.17;;
11086;SDS011;5597;47.588;9.642;2022-08-26T03:23:34;5.10;;;4.70;;
11086;SDS011;5597;47.588;9.642;2022-08-26T03:26:01;5.83;;;5.43;;
11086;SDS011;5597;47.588;9.642;2022-08-26T03:28:27;5.90;;;5.40;;
11086;SDS011;5597;47.588;9.642;2022-08-26T03:30:53;5.60;;;5.20;;
11086;SDS011;5597;47.588;9.642;2022-08-26T03:33:19;5.90;;;5.50;;
11086;SDS011;5597;47.588;9.642;2022-08-26T03:35:45;5.77;;;5.27;;
11086;SDS011;5597;47.588;9.642;2022-08-26T03:38:12;5.73;;;5.23;;
11086;SDS011;5597;47.588;9.642;2022-08-26T03:40:38;5.43;;;5.03;;
11086;SDS011;5597;47.588;9.642;2022-08-26T03:43:05;5.90;;;5.40;;
11086;SDS011;5597;47.588;9.642;2022-08-26T03:45:31;5.83;;;5.33;;
11086;SDS011;5597;47.588;9.642;2022-08-26T03:47:58;6.23;;;5.73;;
11086;SDS011;5597;47.588;9.642;2022-08-26T03:50:25;5.63;;;5.23;;
11086;SDS011;5597;47.588;9.642;2022-08-26T03:52:51;5.67;;;5.20;;
11086;SDS011;5597;47.588;9.642;2022-08-26T03:55:19;5.80;;;5.30;;
11086;SDS011;5597;47.588;9.642;2022-08-26T03:57:47;5.87;;;5.37;;
11086;SDS011;5597;47.588;9.642;2022-08-26T04:00:14;5.50;;;5.10;;
11086;SDS011;5597;47.588;9.642;2022-08-26T04:02:41;5.93;;;5.43;;
11086;SDS011;5597;47.588;9.642;2022-08-26T04:05:09;5.57;;;5.07;;
11086;SDS011;5597;47.588;9.642;2022-08-26T04:07:37;6.10;;;5.60;;
11086;SDS011;5597;47.588;9.642;2022-08-26T04:10:04;5.43;;;5.03;;
11086;SDS011;5597;47.588;9.642;2022-08-26T04:12:30;5.50;;;5.10;;
11086;SDS011;5597;47.588;9.642;2022-08-26T04:14:55;5.50;;;5.10;;
11086;SDS011;5597;47.588;9.642;2022-08-26T04:17:22;5.67;;;5.03;;
11086;SDS011;5597;47.588;9.642;2022-08-26T04:19:49;5.90;;;5.40;;
11086;SDS011;5597;47.588;9.642;2022-08-26T04:22:16;6.27;;;5.57;;
11086;SDS011;5597;47.588;9.642;2022-08-26T04:24:42;6.37;;;5.87;;
11086;SDS011;5597;47.588;9.642;2022-08-26T04:27:09;6.20;;;5.63;;
11086;SDS011;5597;47.588;9.642;2022-08-26T04:29:35;5.67;;;5.17;;
11086;SDS011;5597;47.588;9.642;2022-08-26T04:32:03;6.30;;;5.80;;
11086;SDS011;5597;47.588;9.642;2022-08-26T04:34:28;5.90;;;5.40;;
11086;SDS011;5597;47.588;9.642;2022-08-26T04:36:55;5.70;;;5.30;;
11086;SDS011;5597;47.588;9.642;2022-08-26T04:39:21;6.07;;;5.57;;
11086;SDS011;5597;47.588;9.642;2022-08-26T04:41:47;5.77;;;5.37;;
11086;SDS011;5597;47.588;9.642;2022-08-26T04:44:14;5.93;;;5.43;;
11086;SDS011;5597;47.588;9.642;2022-08-26T04:46:40;6.30;;;5.53;;
11086;SDS011;5597;47.588;9.642;2022-08-26T04:49:06;6.07;;;5.40;;
11086;SDS011;5597;47.588;9.642;2022-08-26T04:51:33;6.63;;;5.93;;
11086;SDS011;5597;47.588;9.642;2022-08-26T04:53:59;6.70;;;6.03;;
11086;SDS011;5597;47.588;9.642;2022-08-26T04:56:26;6.60;;;5.73;;
11086;SDS011;5597;47.588;9.642;2022-08-26T04:58:54;6.60;;;5.80;;
11086;SDS011;5597;47.588;9.642;2022-08-26T05:01:20;6.17;;;5.67;;
11086;SDS011;5597;47.588;9.642;2022-08-26T05:03:46;6.40;;;5.90;;
11086;SDS011;5597;47.588;9.642;2022-08-26T05:06:13;6.70;;;6.10;;
11086;SDS011;5597;47.588;9.642;2022-08-26T05:08:39;6.20;;;5.70;;
11086;SDS011;5597;47.588;9.642;2022-08-26T05:11:05;5.80;;;5.40;;
11086;SDS011;5597;47.588;9.642;2022-08-26T05:13:31;6.10;;;5.60;;
11086;SDS011;5597;47.588;9.642;2022-08-26T05:16:01;6.90;;;6.30;;
11086;SDS011;5597;47.588;9.642;2022-08-26T05:18:31;6.10;;;5.60;;
11086;SDS011;5597;47.588;9.642;2022-08-26T05:20:58;6.17;;;5.57;;
11086;SDS011;5597;47.588;9.642;2022-08-26T05:23:24;5.60;;;5.20;;
11086;SDS011;5597;47.588;9.642;2022-08-26T05:25:50;5.73;;;5.23;;
11086;SDS011;5597;47.588;9.642;2022-08-26T05:28:18;6.17;;;5.67;;
11086;SDS011;5597;47.588;9.642;2022-08-26T05:30:45;5.60;;;5.20;;
11086;SDS011;5597;47.588;9.642;2022-08-26T05:33:11;5.90;;;5.43;;
11086;SDS011;5597;47.588;9.642;2022-08-26T05:35:37;7.27;;;6.53;;
11086;SDS011;5597;47.588;9.642;2022-08-26T05:38:07;6.17;;;5.67;;
11086;SDS011;5597;47.588;9.642;2022-08-26T05:40:42;5.90;;;5.33;;
11086;SDS011;5597;47.588;9.642;2022-08-26T05:43:09;6.37;;;5.93;;
11086;SDS011;5597;47.588;9.642;2022-08-26T05:45:37;7.27;;;6.67;;
11086;SDS011;5597;47.588;9.642;2022-08-26T05:48:05;7.70;;;7.03;;
11086;SDS011;5597;47.588;9.642;2022-08-26T05:50:36;6.73;;;6.23;;
11086;SDS011;5597;47.588;9.642;2022-08-26T05:53:04;7.00;;;6.40;;
11086;SDS011;5597;47.588;9.642;2022-08-26T05:55:30;7.37;;;6.57;;
11086;SDS011;5597;47.588;9.642;2022-08-26T05:57:57;7.37;;;6.67;;
11086;SDS011;5597;47.588;9.642;2022-08-26T06:00:22;7.70;;;7.00;;
11086;SDS011;5597;47.588;9.642;2022-08-26T06:02:48;7.57;;;6.87;;
11086;SDS011;5597;47.588;9.642;2022-08-26T06:05:13;7.60;;;7.00;;
11086;SDS011;5597;47.588;9.642;2022-08-26T06:07:39;7.33;;;6.73;;
11086;SDS011;5597;47.588;9.642;2022-08-26T06:10:51;7.30;;;6.70;;
11086;SDS011;5597;47.588;9.642;2022-08-26T06:13:19;8.10;;;6.77;;
11086;SDS011;5597;47.588;9.642;2022-08-26T06:15:48;6.87;;;6.33;;
11086;SDS011;5597;47.588;9.642;2022-08-26T06:18:16;6.90;;;6.30;;
11086;SDS011;5597;47.588;9.642;2022-08-26T06:20:44;7.40;;;6.70;;
11086;SDS011;5597;47.588;9.642;2022-08-26T06:23:15;6.67;;;6.10;;
11086;SDS011;5597;47.588;9.642;2022-08-26T06:26:01;6.60;;;6.10;;
11086;SDS011;5597;47.588;9.642;2022-08-26T06:28:27;7.00;;;6.40;;
11086;SDS011;5597;47.588;9.642;2022-08-26T06:30:53;6.30;;;5.80;;
11086;SDS011;5597;47.588;9.642;2022-08-26T06:33:19;6.20;;;5.70;;
11086;SDS011;5597;47.588;9.642;2022-08-26T06:35:46;5.97;;;5.57;;
11086;SDS011;5597;47.588;9.642;2022-08-26T06:38:12;5.93;;;5.50;;
11086;SDS011;5597;47.588;9.642;2022-08-26T06:40:41;5.57;;;5.17;;
11086;SDS011;5597;47.588;9.642;2022-08-26T06:43:09;5.70;;;5.27;;
11086;SDS011;5597;47.588;9.642;2022-08-26T06:45:35;5.77;;;5.37;;
11086;SDS011;5597;47.588;9.642;2022-08-26T06:48:02;5.27;;;4.87;;
11086;SDS011;5597;47.588;9.642;2022-08-26T06:50:29;5.30;;;4.90;;
11086;SDS011;5597;47.588;9.642;2022-08-26T06:52:54;5.70;;;5.27;;
11086;SDS011;5597;47.588;9.642;2022-08-26T06:55:20;4.87;;;4.50;;
11086;SDS011;5597;47.588;9.642;2022-08-26T06:57:45;5.27;;;4.87;;
11086;SDS011;5597;47.588;9.642;2022-08-26T07:00:11;5.13;;;4.70;;
11086;SDS011;5597;47.588;9.642;2022-08-26T07:02:39;5.27;;;4.63;;
11086;SDS011;5597;47.588;9.642;2022-08-26T07:05:04;5.43;;;4.87;;
11086;SDS011;5597;47.588;9.642;2022-08-26T07:07:31;4.50;;;4.20;;
11086;SDS011;5597;47.588;9.642;2022-08-26T07:09:56;5.07;;;4.57;;
11086;SDS011;5597;47.588;9.642;2022-08-26T07:12:22;6.40;;;4.97;;
11086;SDS011;5597;47.588;9.642;2022-08-26T07:14:48;4.87;;;4.40;;
11086;SDS011;5597;47.588;9.642;2022-08-26T07:17:14;5.03;;;4.63;;
11086;SDS011;5597;47.588;9.642;2022-08-26T07:19:40;4.90;;;4.40;;
11086;SDS011;5597;47.588;9.642;2022-08-26T07:22:06;5.07;;;4.67;;
11086;SDS011;5597;47.588;9.642;2022-08-26T07:24:32;5.30;;;4.90;;
11086;SDS011;5597;47.588;9.642;2022-08-26T07:27:00;5.27;;;4.77;;
11086;SDS011;5597;47.588;9.642;2022-08-26T07:29:27;5.43;;;5.03;;
11086;SDS011;5597;47.588;9.642;2022-08-26T07:31:54;4.80;;;4.30;;
11086;SDS011;5597;47.588;9.642;2022-08-26T07:34:19;5.87;;;4.40;;
11086;SDS011;5597;47.588;9.642;2022-08-26T07:36:46;5.07;;;4.67;;
11086;SDS011;5597;47.588;9.642;2022-08-26T07:39:14;5.07;;;4.67;;
11086;SDS011;5597;47.588;9.642;2022-08-26T07:41:40;5.50;;;4.90;;
11086;SDS011;5597;47.588;9.642;2022-08-26T07:44:06;5.40;;;4.93;;
11086;SDS011;5597;47.588;9.642;2022-08-26T07:46:33;6.27;;;5.07;;
11086;SDS011;5597;47.588;9.642;2022-08-26T07:48:59;5.57;;;5.07;;
11086;SDS011;5597;47.588;9.642;2022-08-26T07:51:25;5.10;;;4.73;;
11086;SDS011;5597;47.588;9.642;2022-08-26T07:53:52;5.10;;;4.70;;
11086;SDS011;5597;47.588;9.642;2022-08-26T07:56:21;4.83;;;4.43;;
11086;SDS011;5597;47.588;9.642;2022-08-26T07:58:48;5.03;;;4.63;;
11086;SDS011;5597;47.588;9.642;2022-08-26T08:01:14;4.90;;;4.50;;
11086;SDS011;5597;47.588;9.642;2022-08-26T08:03:40;5.63;;;4.87;;
11086;SDS011;5597;47.588;9.642;2022-08-26T08:06:06;5.30;;;4.90;;
11086;SDS011;5597;47.588;9.642;2022-08-26T08:08:32;5.23;;;4.73;;
11086;SDS011;5597;47.588;9.642;2022-08-26T08:10:59;5.17;;;4.67;;
11086;SDS011;5597;47.588;9.642;2022-08-26T08:13:26;5.03;;;4.63;;
11086;SDS011;5597;47.588;9.642;2022-08-26T08:15:52;4.60;;;4.27;;
11086;SDS011;5597;47.588;9.642;2022-08-26T08:18:18;5.73;;;5.30;;
11086;SDS011;5597;47.588;9.642;2022-08-26T08:20:44;5.43;;;4.93;;
11086;SDS011;5597;47.588;9.642;2022-08-26T08:23:10;5.83;;;5.33;;
11086;SDS011;5597;47.588;9.642;2022-08-26T08:25:36;5.77;;;5.37;;
11086;SDS011;5597;47.588;9.642;2022-08-26T08:28:01;5.67;;;5.23;;
11086;SDS011;5597;47.588;9.642;2022-08-26T08:30:27;5.70;;;5.10;;
11086;SDS011;5597;47.588;9.642;2022-08-26T08:32:53;5.20;;;4.80;;
11086;SDS011;5597;47.588;9.642;2022-08-26T08:35:20;5.87;;;5.37;;
11086;SDS011;5597;47.588;9.642;2022-08-26T08:37:47;5.97;;;5.37;;
11086;SDS011;5597;47.588;9.642;2022-08-26T08:40:19;6.43;;;5.43;;
11086;SDS011;5597;47.588;9.642;2022-08-26T08:45:30;5.47;;;5.07;;
11086;SDS011;5597;47.588;9.642;2022-08-26T08:48:14;6.40;;;5.90;;
11086;SDS011;5597;47.588;9.642;2022-08-26T08:50:53;8.40;;;7.60;;
11086;SDS011;5597;47.588;9.642;2022-08-26T08:58:50;6.30;;;5.80;;
11086;SDS011;5597;47.588;9.642;2022-08-26T09:04:42;6.20;;;5.70;;
11086;SDS011;5597;47.588;9.642;2022-08-26T09:07:54;6.00;;;5.40;;
11086;SDS011;5597;47.588;9.642;2022-08-26T09:10:54;7.00;;;6.30;;
11086;SDS011;5597;47.588;9.642;2022-08-26T09:13:23;6.30;;;5.70;;
11086;SDS011;5597;47.588;9.642;2022-08-26T09:16:01;6.17;;;5.57;;
11086;SDS011;5597;47.588;9.642;2022-08-26T09:21:36;6.83;;;6.27;;
11086;SDS011;5597;47.588;9.642;2022-08-26T09:24:02;5.90;;;5.40;;
11086;SDS011;5597;47.588;9.642;2022-08-26T09:29:03;6.00;;;5.50;;
11086;SDS011;5597;47.588;9.642;2022-08-26T09:31:36;8.00;;;7.30;;
11086;SDS011;5597;47.588;9.642;2022-08-26T09:34:19;5.83;;;5.33;;
11086;SDS011;5597;47.588;9.642;2022-08-26T09:36:55;7.07;;;6.00;;
11086;SDS011;5597;47.588;9.642;2022-08-26T09:39:24;7.50;;;6.90;;
11086;SDS011;5597;47.588;9.642;2022-08-26T09:42:11;5.57;;;5.17;;
11086;SDS011;5597;47.588;9.642;2022-08-26T09:44:56;6.33;;;5.83;;
11086;SDS011;5597;47.588;9.642;2022-08-26T09:47:50;5.90;;;5.40;;
11086;SDS011;5597;47.588;9.642;2022-08-26T09:55:36;5.60;;;5.20;;
11086;SDS011;5597;47.588;9.642;2022-08-26T09:58:03;6.47;;;5.80;;
11086;SDS011;5597;47.588;9.642;2022-08-26T10:00:37;6.47;;;5.77;;
11086;SDS011;5597;47.588;9.642;2022-08-26T10:03:11;6.13;;;5.63;;
11086;SDS011;5597;47.588;9.642;2022-08-26T10:05:58;6.70;;;6.10;;
11086;SDS011;5597;47.588;9.642;2022-08-26T10:08:30;6.60;;;6.00;;
11086;SDS011;5597;47.588;9.642;2022-08-26T10:10:57;6.93;;;6.43;;
11086;SDS011;5597;47.588;9.642;2022-08-26T10:13:35;7.37;;;6.87;;
11086;SDS011;5597;47.588;9.642;2022-08-26T10:16:22;6.33;;;5.83;;
11086;SDS011;5597;47.588;9.642;2022-08-26T10:19:07;6.17;;;5.57;;
11086;SDS011;5597;47.588;9.642;2022-08-26T10:21:37;6.80;;;6.30;;
11086;SDS011;5597;47.588;9.642;2022-08-26T10:24:16;6.23;;;5.70;;
11086;SDS011;5597;47.588;9.642;2022-08-26T10:26:56;6.13;;;5.63;;
11086;SDS011;5597;47.588;9.642;2022-08-26T10:29:40;5.47;;;4.97;;
11086;SDS011;5597;47.588;9.642;2022-08-26T10:35:08;5.90;;;5.50;;
11086;SDS011;5597;47.588;9.642;2022-08-26T10:37:37;6.07;;;5.57;;
11086;SDS011;5597;47.588;9.642;2022-08-26T10:40:12;5.60;;;5.20;;
11086;SDS011;5597;47.588;9.642;2022-08-26T10:42:49;5.50;;;5.07;;
11086;SDS011;5597;47.588;9.642;2022-08-26T10:45:20;5.87;;;5.27;;
11086;SDS011;5597;47.588;9.642;2022-08-26T10:48:06;5.73;;;5.33;;
11086;SDS011;5597;47.588;9.642;2022-08-26T10:50:45;4.93;;;4.60;;
11086;SDS011;5597;47.588;9.642;2022-08-26T10:53:16;5.17;;;4.67;;
11086;SDS011;5597;47.588;9.642;2022-08-26T10:56:00;5.00;;;4.67;;
11086;SDS011;5597;47.588;9.642;2022-08-26T11:22:48;5.50;;;5.00;;
11086;SDS011;5597;47.588;9.642;2022-08-26T11:25:16;4.73;;;4.43;;
11086;SDS011;5597;47.588;9.642;2022-08-26T11:40:08;5.70;;;5.10;;
11086;SDS011;5597;47.588;9.642;2022-08-26T11:42:41;4.53;;;4.23;;
11086;SDS011;5597;47.588;9.642;2022-08-26T11:51:01;5.23;;;4.70;;
11086;SDS011;5597;47.588;9.642;2022-08-26T11:53:39;4.97;;;4.57;;
11086;SDS011;5597;47.588;9.642;2022-08-26T11:56:30;4.57;;;4.17;;
11086;SDS011;5597;47.588;9.642;2022-08-26T11:58:57;4.83;;;4.40;;
11086;SDS011;5597;47.588;9.642;2022-08-26T12:01:30;4.83;;;4.37;;
11086;SDS011;5597;47.588;9.642;2022-08-26T12:03:59;4.60;;;4.30;;
11086;SDS011;5597;47.588;9.642;2022-08-26T12:06:33;4.40;;;4.10;;
11086;SDS011;5597;47.588;9.642;2022-08-26T12:09:02;4.70;;;4.30;;
11086;SDS011;5597;47.588;9.642;2022-08-26T12:11:33;4.70;;;4.30;;
11086;SDS011;5597;47.588;9.642;2022-08-26T12:14:21;5.23;;;4.50;;
11086;SDS011;5597;47.588;9.642;2022-08-26T12:16:50;5.27;;;4.77;;
11086;SDS011;5597;47.588;9.642;2022-08-26T12:19:28;4.50;;;4.10;;
11086;SDS011;5597;47.588;9.642;2022-08-26T12:22:08;4.77;;;4.47;;
11086;SDS011;5597;47.588;9.642;2022-08-26T12:24:42;4.37;;;4.07;;
11086;SDS011;5597;47.588;9.642;2022-08-26T12:27:14;4.53;;;4.23;;
11086;SDS011;5597;47.588;9.642;2022-08-26T12:32:30;3.90;;;3.60;;
11086;SDS011;5597;47.588;9.642;2022-08-26T12:34:56;4.20;;;3.90;;
11086;SDS011;5597;47.588;9.642;2022-08-26T12:37:22;4.40;;;4.00;;
11086;SDS011;5597;47.588;9.642;2022-08-26T12:39:51;4.30;;;3.90;;
11086;SDS011;5597;47.588;9.642;2022-08-26T12:42:38;4.97;;;4.57;;
11086;SDS011;5597;47.588;9.642;2022-08-26T12:45:05;4.20;;;3.90;;
11086;SDS011;5597;47.588;9.642;2022-08-26T12:47:52;3.83;;;3.57;;
11086;SDS011;5597;47.588;9.642;2022-08-26T12:50:22;3.97;;;3.67;;
11086;SDS011;5597;47.588;9.642;2022-08-26T12:53:01;3.70;;;3.40;;
11086;SDS011;5597;47.588;9.642;2022-08-26T12:55:43;4.20;;;3.80;;
11086;SDS011;5597;47.588;9.642;2022-08-26T13:00:40;4.30;;;4.00;;
11086;SDS011;5597;47.588;9.642;2022-08-26T13:08:45;3.30;;;3.00;;
11086;SDS011;5597;47.588;9.642;2022-08-26T13:11:55;2.80;;;2.60;;
11086;SDS011;5597;47.588;9.642;2022-08-26T13:14:20;2.73;;;2.53;;
11086;SDS011;5597;47.588;9.642;2022-08-26T13:16:47;3.10;;;2.90;;
11086;SDS011;5597;47.588;9.642;2022-08-26T13:19:15;3.17;;;2.87;;
11086;SDS011;5597;47.588;9.642;2022-08-26T13:21:46;2.70;;;2.50;;
11086;SDS011;5597;47.588;9.642;2022-08-26T13:24:53;2.90;;;2.70;;
11086;SDS011;5597;47.588;9.642;2022-08-26T13:27:11;3.60;;;3.30;;
11086;SDS011;5597;47.588;9.642;2022-08-26T13:29:38;4.40;;;3.90;;
11086;SDS011;5597;47.588;9.642;2022-08-26T13:32:05;3.60;;;3.30;;
11086;SDS011;5597;47.588;9.642;2022-08-26T13:34:32;3.60;;;3.30;;
11086;SDS011;5597;47.588;9.642;2022-08-26T13:37:00;4.90;;;3.60;;
11086;SDS011;5597;47.588;9.642;2022-08-26T13:39:26;3.47;;;3.13;;
11086;SDS011;5597;47.588;9.642;2022-08-26T13:41:52;4.27;;;3.07;;
11086;SDS011;5597;47.588;9.642;2022-08-26T13:44:18;2.60;;;2.40;;
11086;SDS011;5597;47.588;9.642;2022-08-26T13:46:44;2.43;;;2.33;;
11086;SDS011;5597;47.588;9.642;2022-08-26T13:49:09;2.77;;;2.43;;
11086;SDS011;5597;47.588;9.642;2022-08-26T13:51:35;2.60;;;2.40;;
11086;SDS011;5597;47.588;9.642;2022-08-26T13:54:01;2.60;;;2.43;;
11086;SDS011;5597;47.588;9.642;2022-08-26T13:56:28;2.90;;;2.70;;
11086;SDS011;5597;47.588;9.642;2022-08-26T13:58:54;3.03;;;2.83;;
11086;SDS011;5597;47.588;9.642;2022-08-26T14:01:20;2.90;;;2.70;;
11086;SDS011;5597;47.588;9.642;2022-08-26T14:03:47;3.40;;;3.10;;
11086;SDS011;5597;47.588;9.642;2022-08-26T14:06:12;3.13;;;2.83;;
11086;SDS011;5597;47.588;9.642;2022-08-26T14:08:39;2.87;;;2.60;;
11086;SDS011;5597;47.588;9.642;2022-08-26T14:11:05;2.97;;;2.67;;
11086;SDS011;5597;47.588;9.642;2022-08-26T14:13:31;4.43;;;2.90;;
11086;SDS011;5597;47.588;9.642;2022-08-26T14:15:58;2.43;;;2.30;;
11086;SDS011;5597;47.588;9.642;2022-08-26T14:18:29;2.53;;;2.33;;
11086;SDS011;5597;47.588;9.642;2022-08-26T14:20:57;2.60;;;2.40;;
11086;SDS011;5597;47.588;9.642;2022-08-26T14:23:23;2.70;;;2.50;;
11086;SDS011;5597;47.588;9.642;2022-08-26T14:25:49;2.50;;;2.40;;
11086;SDS011;5597;47.588;9.642;2022-08-26T14:28:15;2.60;;;2.40;;
11086;SDS011;5597;47.588;9.642;2022-08-26T14:30:42;2.87;;;2.60;;
11086;SDS011;5597;47.588;9.642;2022-08-26T14:33:11;2.83;;;2.63;;
11086;SDS011;5597;47.588;9.642;2022-08-26T14:35:39;2.93;;;2.63;;
11086;SDS011;5597;47.588;9.642;2022-08-26T14:38:05;3.10;;;2.77;;
11086;SDS011;5597;47.588;9.642;2022-08-26T14:40:31;4.33;;;3.07;;
11086;SDS011;5597;47.588;9.642;2022-08-26T14:42:58;2.90;;;2.70;;
11086;SDS011;5597;47.588;9.642;2022-08-26T14:45:24;2.87;;;2.67;;
11086;SDS011;5597;47.588;9.642;2022-08-26T14:47:51;3.40;;;3.10;;
11086;SDS011;5597;47.588;9.642;2022-08-26T14:50:19;3.30;;;3.10;;
11086;SDS011;5597;47.588;9.642;2022-08-26T14:52:46;3.60;;;3.30;;
11086;SDS011;5597;47.588;9.642;2022-08-26T14:55:33;3.60;;;3.30;;
11086;SDS011;5597;47.588;9.642;2022-08-26T14:58:00;3.37;;;3.07;;
11086;SDS011;5597;47.588;9.642;2022-08-26T15:00:26;3.63;;;3.33;;
11086;SDS011;5597;47.588;9.642;2022-08-26T15:02:52;3.77;;;3.47;;
11086;SDS011;5597;47.588;9.642;2022-08-26T15:05:18;3.43;;;3.13;;
11086;SDS011;5597;47.588;9.642;2022-08-26T15:07:44;3.13;;;2.93;;
11086;SDS011;5597;47.588;9.642;2022-08-26T15:10:11;4.33;;;3.30;;
11086;SDS011;5597;47.588;9.642;2022-08-26T15:12:38;3.27;;;3.00;;
11086;SDS011;5597;47.588;9.642;2022-08-26T15:15:05;3.10;;;2.90;;
11086;SDS011;5597;47.588;9.642;2022-08-26T15:17:31;3.30;;;3.07;;
11086;SDS011;5597;47.588;9.642;2022-08-26T15:19:57;3.30;;;3.00;;
11086;SDS011;5597;47.588;9.642;2022-08-26T15:22:23;3.60;;;2.77;;
11086;SDS011;5597;47.588;9.642;2022-08-26T15:24:50;2.77;;;2.57;;
11086;SDS011;5597;47.588;9.642;2022-08-26T15:27:16;3.57;;;2.90;;
11086;SDS011;5597;47.588;9.642;2022-08-26T15:29:42;3.20;;;3.00;;
11086;SDS011;5597;47.588;9.642;2022-08-26T15:32:07;3.47;;;3.20;;
11086;SDS011;5597;47.588;9.642;2022-08-26T15:34:33;3.20;;;3.00;;
11086;SDS011;5597;47.588;9.642;2022-08-26T15:36:59;3.47;;;3.17;;
11086;SDS011;5597;47.588;9.642;2022-08-26T15:39:26;2.80;;;2.60;;
11086;SDS011;5597;47.588;9.642;2022-08-26T15:41:52;3.23;;;2.93;;
11086;SDS011;5597;47.588;9.642;2022-08-26T15:44:19;3.40;;;3.10;;
11086;SDS011;5597;47.588;9.642;2022-08-26T15:46:46;3.20;;;3.00;;
11086;SDS011;5597;47.588;9.642;2022-08-26T15:49:13;3.30;;;3.10;;
11086;SDS011;5597;47.588;9.642;2022-08-26T15:51:39;3.40;;;3.00;;
11086;SDS011;5597;47.588;9.642;2022-08-26T15:54:05;3.10;;;2.90;;
11086;SDS011;5597;47.588;9.642;2022-08-26T15:56:33;3.00;;;2.80;;
11086;SDS011;5597;47.588;9.642;2022-08-26T15:59:00;2.90;;;2.70;;
11086;SDS011;5597;47.588;9.642;2022-08-26T16:01:28;2.77;;;2.57;;
11086;SDS011;5597;47.588;9.642;2022-08-26T16:03:56;3.17;;;2.90;;
11086;SDS011;5597;47.588;9.642;2022-08-26T16:06:23;2.67;;;2.47;;
11086;SDS011;5597;47.588;9.642;2022-08-26T16:08:52;3.20;;;2.97;;
11086;SDS011;5597;47.588;9.642;2022-08-26T16:11:19;2.87;;;2.67;;
11086;SDS011;5597;47.588;9.642;2022-08-26T16:13:45;2.87;;;2.67;;
11086;SDS011;5597;47.588;9.642;2022-08-26T16:16:11;3.50;;;3.20;;
11086;SDS011;5597;47.588;9.642;2022-08-26T16:18:37;3.60;;;3.27;;
11086;SDS011;5597;47.588;9.642;2022-08-26T16:21:03;3.27;;;3.07;;
11086;SDS011;5597;47.588;9.642;2022-08-26T16:23:28;3.60;;;3.30;;
11086;SDS011;5597;47.588;9.642;2022-08-26T16:25:54;3.60;;;3.30;;
11086;SDS011;5597;47.588;9.642;2022-08-26T16:28:20;3.30;;;3.00;;
11086;SDS011;5597;47.588;9.642;2022-08-26T16:30:46;5.27;;;3.27;;
11086;SDS011;5597;47.588;9.642;2022-08-26T16:33:13;3.67;;;3.00;;